Time;durP1;ratioP1;P1;durP2;ratioP2;P2;SDS_P1;SDS_P2;PMS_P1;PMS_P2;Temp;Humidity;BMP_temperature;BMP_pressure;BME280_temperature;BME280_humidity;BME280_pressure;Samples;Min_cycle;Max_cycle;Signal;HPM_P1;HPM_P2
2022/08/21 00:02:23;;;;;;;14.75;13.75;;;;;;;24.10;100.00;-18392.94;5114825;28;20184;-65
2022/08/21 00:04:51;;;;;;;14.55;13.73;;;;;;;24.13;100.00;-18393.66;5096679;28;20234;-65
2022/08/21 00:07:21;;;;;;;14.05;13.32;;;;;;;23.99;100.00;-18390.34;5115018;28;20690;-65
2022/08/21 00:09:48;;;;;;;13.98;12.57;;;;;;;23.92;100.00;-18388.69;5114822;28;20172;-64
2022/08/21 00:12:16;;;;;;;21.35;13.63;;;;;;;23.59;100.00;-18380.97;5114779;28;20187;-65
2022/08/21 00:14:43;;;;;;;13.60;12.57;;;;;;;23.64;100.00;-18382.03;5114706;28;20689;-64
2022/08/21 00:17:10;;;;;;;14.00;12.85;;;;;;;23.55;100.00;-18379.91;5115008;28;20187;-65
2022/08/21 00:19:39;;;;;;;13.23;12.40;;;;;;;23.54;100.00;-18379.66;5114475;28;20199;-64
2022/08/21 00:22:06;;;;;;;13.63;12.82;;;;;;;23.53;100.00;-18379.56;5115074;28;20190;-64
2022/08/21 00:24:33;;;;;;;12.88;12.00;;;;;;;23.56;100.00;-18380.16;5114389;28;20290;-64
2022/08/21 00:27:00;;;;;;;13.40;12.75;;;;;;;23.53;100.00;-18379.44;5114076;28;20183;-64
2022/08/21 00:29:28;;;;;;;12.60;12.02;;;;;;;23.52;100.00;-18379.19;5114714;28;20191;-65
2022/08/21 00:31:55;;;;;;;12.93;12.20;;;;;;;23.53;100.00;-18379.56;5114831;28;20175;-63
2022/08/21 00:34:22;;;;;;;12.80;12.10;;;;;;;23.67;100.00;-18382.75;5114291;28;20184;-65
2022/08/21 00:36:49;;;;;;;12.98;12.38;;;;;;;23.76;100.00;-18384.78;5114163;28;20190;-64
2022/08/21 00:39:16;;;;;;;14.30;13.00;;;;;;;23.77;100.00;-18385.13;5114270;28;20243;-64
2022/08/21 00:41:44;;;;;;;13.70;12.43;;;;;;;23.85;100.00;-18387.03;5114415;28;20175;-64
2022/08/21 00:44:15;;;;;;;12.95;11.73;;;;;;;23.65;100.00;-18382.28;5114190;28;20680;-65
2022/08/21 00:46:44;;;;;;;12.38;11.68;;;;;;;23.49;100.00;-18378.59;5114292;28;20179;-65
2022/08/21 00:49:13;;;;;;;12.38;11.82;;;;;;;23.71;100.00;-18383.59;5114198;28;20210;-65
2022/08/21 00:51:44;;;;;;;12.77;11.70;;;;;;;23.76;100.00;-18384.78;5114037;28;20286;-64
2022/08/21 00:54:13;;;;;;;13.25;12.20;;;;;;;23.79;100.00;-18385.47;5114438;28;20190;-64
2022/08/21 00:56:40;;;;;;;12.50;11.65;;;;;;;23.74;100.00;-18384.28;5113785;28;20184;-64
2022/08/21 00:59:07;;;;;;;12.07;11.68;;;;;;;23.73;100.00;-18384.19;5113925;28;20561;-64
2022/08/21 01:01:35;;;;;;;13.50;12.82;;;;;;;23.67;100.00;-18382.75;5113953;28;20654;-64
2022/08/21 01:04:03;;;;;;;13.95;13.07;;;;;;;23.59;100.00;-18380.84;5113810;28;20211;-65
2022/08/21 01:06:30;;;;;;;14.10;12.18;;;;;;;23.73;100.00;-18384.06;5113848;28;20187;-64
2022/08/21 01:08:57;;;;;;;14.07;12.75;;;;;;;23.68;100.00;-18383.09;5113692;28;20282;-64
2022/08/21 01:11:24;;;;;;;13.80;13.20;;;;;;;23.64;100.00;-18382.03;5113829;28;20268;-64
2022/08/21 01:13:52;;;;;;;14.40;13.38;;;;;;;23.68;100.00;-18383.00;5113475;28;20306;-65
2022/08/21 01:16:21;;;;;;;13.25;12.43;;;;;;;23.61;100.00;-18381.34;5114118;28;20187;-65
2022/08/21 01:18:49;;;;;;;14.52;13.45;;;;;;;23.48;100.00;-18378.25;5113613;28;20638;-65
2022/08/21 01:21:20;;;;;;;13.93;12.95;;;;;;;23.50;100.00;-18378.72;5113977;28;20278;-64
2022/08/21 01:23:49;;;;;;;13.48;12.50;;;;;;;23.46;100.00;-18377.91;5113181;28;20217;-64
2022/08/21 01:26:19;;;;;;;13.25;12.65;;;;;;;23.54;100.00;-18379.66;5113626;28;20183;-65
2022/08/21 01:28:52;;;;;;;12.55;11.95;;;;;;;23.52;100.00;-18379.31;5113819;28;20190;-65
2022/08/21 01:31:23;;;;;;;13.60;12.80;;;;;;;23.53;100.00;-18379.56;5113533;28;20600;-65
2022/08/21 01:33:50;;;;;;;14.02;13.13;;;;;;;23.70;100.00;-18383.47;5113341;28;20176;-64
2022/08/21 01:36:19;;;;;;;14.18;13.27;;;;;;;23.68;100.00;-18383.00;5113725;28;20650;-65
2022/08/21 01:38:46;;;;;;;14.45;13.70;;;;;;;23.73;100.00;-18384.06;5112191;28;20191;-65
2022/08/21 01:41:14;;;;;;;15.80;14.45;;;;;;;23.82;100.00;-18386.31;5113646;28;20214;-65
2022/08/21 01:43:41;;;;;;;14.15;13.45;;;;;;;23.86;100.00;-18387.25;5113234;28;20213;-64
2022/08/21 01:46:09;;;;;;;14.48;13.55;;;;;;;23.91;100.00;-18388.44;5113115;28;20179;-64
2022/08/21 01:48:36;;;;;;;15.23;14.10;;;;;;;23.74;100.00;-18384.28;5112878;28;20236;-65
2022/08/21 01:51:04;;;;;;;14.20;13.35;;;;;;;23.85;100.00;-18387.03;5113272;28;20282;-64
2022/08/21 01:53:33;;;;;;;12.98;12.27;;;;;;;23.83;100.00;-18386.56;5112736;28;20270;-65
2022/08/21 01:56:00;;;;;;;12.00;11.45;;;;;;;23.82;100.00;-18386.31;5113014;28;20179;-64
2022/08/21 01:58:27;;;;;;;12.60;11.73;;;;;;;23.88;100.00;-18387.72;5095539;28;20327;-65
2022/08/21 02:00:54;;;;;;;12.75;11.95;;;;;;;23.91;100.00;-18388.44;5113164;28;20188;-65
2022/08/21 02:03:21;;;;;;;13.55;12.63;;;;;;;23.83;100.00;-18386.56;5112931;28;20561;-65
2022/08/21 02:05:48;;;;;;;15.43;13.70;;;;;;;23.63;100.00;-18381.94;5112748;28;20190;-66
2022/08/21 02:08:15;;;;;;;15.90;14.77;;;;;;;23.58;100.00;-18380.75;5112659;28;20183;-64
2022/08/21 02:10:43;;;;;;;16.77;15.77;;;;;;;23.47;100.00;-18378.00;5112611;28;20187;-64
2022/08/21 02:13:10;;;;;;;17.50;16.13;;;;;;;23.61;100.00;-18381.34;5112617;28;20187;-64
2022/08/21 02:15:37;;;;;;;17.85;16.50;;;;;;;23.59;100.00;-18380.97;5112690;28;20667;-65
2022/08/21 02:18:06;;;;;;;17.10;16.13;;;;;;;23.56;100.00;-18380.16;5112435;28;20659;-65
2022/08/21 02:20:36;;;;;;;17.45;16.45;;;;;;;23.58;100.00;-18380.75;5112841;28;20569;-65
2022/08/21 02:23:04;;;;;;;17.15;16.05;;;;;;;23.59;100.00;-18380.84;5113071;28;20282;-65
2022/08/21 02:25:34;;;;;;;16.70;15.65;;;;;;;23.43;100.00;-18377.06;5112748;28;20203;-64
2022/08/21 02:28:05;;;;;;;17.15;16.05;;;;;;;23.50;100.00;-18378.84;5112809;28;20190;-65
2022/08/21 02:30:34;;;;;;;16.08;15.10;;;;;;;23.50;100.00;-18378.84;5113343;28;20583;-65
2022/08/21 02:33:01;;;;;;;17.70;16.17;;;;;;;23.41;100.00;-18376.59;5112841;28;20193;-64
2022/08/21 02:35:29;;;;;;;18.00;16.70;;;;;;;23.55;100.00;-18380.03;5112913;28;20191;-63
2022/08/21 02:37:58;;;;;;;18.35;16.65;;;;;;;23.56;100.00;-18380.16;5112480;28;20183;-64
2022/08/21 02:40:27;;;;;;;17.05;15.80;;;;;;;23.52;100.00;-18379.19;5112495;28;20187;-64
2022/08/21 02:42:55;;;;;;;18.05;16.58;;;;;;;23.52;100.00;-18379.19;5112655;28;20183;-64
2022/08/21 02:45:24;;;;;;;16.48;15.25;;;;;;;23.22;100.00;-18372.19;5112289;28;20203;-65
2022/08/21 02:47:52;;;;;;;17.35;16.00;;;;;;;23.34;100.00;-18374.94;5112559;28;20176;-64
2022/08/21 02:50:21;;;;;;;15.23;14.48;;;;;;;23.27;100.00;-18373.38;5114697;28;20183;-64
2022/08/21 02:52:48;;;;;;;17.23;16.08;;;;;;;23.22;100.00;-18372.31;5116464;28;20227;-64
2022/08/21 02:55:16;;;;;;;16.77;15.68;;;;;;;23.26;100.00;-18373.13;5116519;28;20629;-64
2022/08/21 02:57:43;;;;;;;17.55;16.17;;;;;;;23.24;100.00;-18372.66;5116753;28;20183;-64
2022/08/21 03:00:13;;;;;;;16.90;15.80;;;;;;;23.23;100.00;-18372.44;5116742;28;20190;-64
2022/08/21 03:02:41;;;;;;;16.48;15.18;;;;;;;23.23;100.00;-18372.44;5116635;28;20617;-63
2022/08/21 03:05:10;;;;;;;14.73;13.93;;;;;;;23.18;100.00;-18371.34;5115924;28;20211;-63
2022/08/21 03:07:38;;;;;;;15.68;14.80;;;;;;;23.28;100.00;-18373.63;5116344;28;20542;-64
2022/08/21 03:10:07;;;;;;;15.65;14.63;;;;;;;23.25;100.00;-18372.91;5116428;28;20184;-65
2022/08/21 03:12:35;;;;;;;14.15;13.55;;;;;;;23.20;100.00;-18371.84;5116680;28;20184;-64
2022/08/21 03:15:02;;;;;;;15.70;14.68;;;;;;;23.24;100.00;-18372.66;5115765;28;20298;-65
2022/08/21 03:17:29;;;;;;;17.95;16.15;;;;;;;23.20;100.00;-18371.84;5116204;28;20648;-64
2022/08/21 03:19:58;;;;;;;20.02;18.45;;;;;;;23.22;100.00;-18372.19;5115846;28;20199;-64
2022/08/21 03:22:25;;;;;;;18.85;17.73;;;;;;;23.04;100.00;-18368.03;5115858;28;20191;-64
2022/08/21 03:24:53;;;;;;;24.65;22.25;;;;;;;23.11;100.00;-18369.69;5115506;28;20245;-64
2022/08/21 03:27:20;;;;;;;25.63;22.85;;;;;;;23.10;100.00;-18369.34;5115502;28;20282;-64
2022/08/21 03:29:47;;;;;;;30.52;24.08;;;;;;;23.14;100.00;-18370.28;5115616;28;20186;-64
2022/08/21 03:32:14;;;;;;;23.85;21.48;;;;;;;23.00;100.00;-18367.09;5115560;28;20183;-65
2022/08/21 03:34:41;;;;;;;22.27;20.42;;;;;;;22.90;100.00;-18364.72;5115985;28;20278;-64
2022/08/21 03:37:10;;;;;;;23.55;21.05;;;;;;;23.12;100.00;-18369.94;5116099;28;20752;-64
2022/08/21 03:39:37;;;;;;;22.80;20.77;;;;;;;23.01;100.00;-18367.31;5115611;28;20626;-64
2022/08/21 03:42:05;;;;;;;22.27;20.30;;;;;;;22.96;100.00;-18366.13;5115598;28;20561;-64
2022/08/21 03:44:33;;;;;;;19.63;18.08;;;;;;;22.99;100.00;-18366.84;5115086;28;20219;-64
2022/08/21 03:46:59;;;;;;;19.52;17.80;;;;;;;23.01;100.00;-18367.31;5115442;28;20261;-64
2022/08/21 03:49:27;;;;;;;22.40;20.08;;;;;;;23.11;100.00;-18369.69;5115253;28;20195;-64
2022/08/21 03:51:55;;;;;;;23.67;21.23;;;;;;;23.22;100.00;-18372.31;5115024;28;20180;-65
2022/08/21 03:54:23;;;;;;;23.27;21.17;;;;;;;23.30;100.00;-18373.97;5115029;28;20191;-64
2022/08/21 03:56:50;;;;;;;23.42;21.10;;;;;;;23.35;100.00;-18375.16;5115210;28;20184;-64
2022/08/21 03:59:17;;;;;;;21.77;19.65;;;;;;;23.44;100.00;-18377.41;5114929;28;20183;-65
2022/08/21 04:01:52;;;;;;;21.27;19.27;;;;;;;23.61;100.00;-18381.44;5095970;28;20191;-63
2022/08/21 04:04:19;;;;;;;20.27;18.50;;;;;;;23.82;100.00;-18386.19;5115046;28;20237;-65
2022/08/21 04:06:46;;;;;;;21.75;19.48;;;;;;;23.94;100.00;-18389.16;5115333;28;20207;-64
2022/08/21 04:09:13;;;;;;;20.02;18.45;;;;;;;23.95;100.00;-18389.41;5096518;28;20189;-64
2022/08/21 04:11:42;;;;;;;20.08;18.58;;;;;;;24.05;100.00;-18391.75;5114713;28;20190;-65
2022/08/21 04:14:09;;;;;;;20.05;18.23;;;;;;;24.15;100.00;-18394.03;5115087;28;20331;-65
2022/08/21 04:16:36;;;;;;;19.88;17.90;;;;;;;24.38;100.00;-18399.34;5115294;28;20187;-65
2022/08/21 04:19:02;;;;;;;17.30;16.17;;;;;;;24.51;100.00;-18402.56;5114755;28;20233;-64
2022/08/21 04:21:30;;;;;;;17.95;16.75;;;;;;;24.84;100.00;-18410.25;5114724;28;20193;-65
2022/08/21 04:23:57;;;;;;;17.98;16.77;;;;;;;25.08;100.00;-18415.81;5115098;28;20238;-64
2022/08/21 04:26:25;;;;;;;18.27;16.65;;;;;;;25.23;100.00;-18419.38;5114299;28;20239;-64
2022/08/21 04:28:55;;;;;;;17.13;16.00;;;;;;;25.42;100.00;-18423.75;5114848;28;20267;-65
2022/08/21 04:31:22;;;;;;;17.55;16.15;;;;;;;25.67;100.00;-17451.19;5114571;28;20638;-65
2022/08/21 04:33:49;;;;;;;16.23;14.88;;;;;;;26.03;100.00;-14199.78;5114483;28;20186;-65
2022/08/21 04:36:16;;;;;;;16.75;15.10;;;;;;;26.41;100.00;-9308.16;5114567;28;20199;-65
2022/08/21 04:38:42;;;;;;;18.98;17.17;;;;;;;26.65;100.00;-1127.69;5114235;28;20218;-65
2022/08/21 04:41:09;;;;;;;16.73;15.68;;;;;;;27.21;100.00;9058.47;5114400;28;20637;-65
2022/08/21 04:43:36;;;;;;;16.15;15.13;;;;;;;27.66;100.00;21272.81;5114329;28;20222;-65
2022/08/21 04:46:05;;;;;;;16.55;15.15;;;;;;;28.04;100.00;30559.41;5115081;28;20683;-65
2022/08/21 04:48:32;;;;;;;15.70;14.77;;;;;;;28.09;100.00;46851.63;5113949;28;20278;-64
2022/08/21 04:51:07;;;;;;;17.13;15.52;;;;;;;28.10;100.00;44187.13;5095835;28;20203;-65
2022/08/21 04:53:39;;;;;;;16.85;15.13;;;;;;;27.96;100.00;40184.25;5114241;28;20651;-65
2022/08/21 04:56:11;;;;;;;16.80;15.25;;;;;;;28.08;100.00;38529.91;5113774;28;20183;-66
2022/08/21 04:58:39;;;;;;;18.00;16.45;;;;;;;27.97;100.00;39519.63;5113977;28;20184;-65
2022/08/21 05:01:12;;;;;;;17.95;16.10;;;;;;;28.37;100.00;48874.47;5114079;28;20672;-66
2022/08/21 05:03:40;;;;;;;16.58;15.48;;;;;;;28.39;100.00;68280.56;5113662;28;20185;-65
2022/08/21 05:06:11;;;;;;;19.02;15.90;;;;;;;28.85;100.00;75728.06;5113488;28;20199;-65
2022/08/21 05:08:40;;;;;;;18.33;17.02;;;;;;;28.68;100.00;76042.66;5113977;28;20192;-65
2022/08/21 05:11:08;;;;;;;19.15;17.90;;;;;;;28.57;100.00;67630.34;5113825;28;20190;-64
2022/08/21 05:13:35;;;;;;;21.48;19.63;;;;;;;28.67;100.00;68311.94;5113380;28;20187;-64
2022/08/21 05:16:02;;;;;;;20.17;18.40;;;;;;;29.06;100.00;82492.84;5114366;28;20634;-66
2022/08/21 05:18:31;;;;;;;21.83;18.92;;;;;;;29.42;100.00;120203.06;5113793;28;20666;-65
2022/08/21 05:20:58;;;;;;;23.08;21.17;;;;;;;29.37;100.00;123947.03;5113286;28;20199;-65
2022/08/21 05:23:25;;;;;;;23.17;21.13;;;;;;;29.53;100.00;133214.06;5113261;28;20191;-66
2022/08/21 05:25:52;;;;;;;20.90;19.23;;;;;;;29.50;100.00;127392.03;5113752;28;20687;-66
2022/08/21 05:28:19;;;;;;;19.83;18.42;;;;;;;29.78;100.00;153371.50;5113732;28;20224;-65
2022/08/21 05:30:47;;;;;;;18.85;17.38;;;;;;;30.05;100.00;153604.91;5113748;28;20184;-66
2022/08/21 05:33:14;;;;;;;17.63;16.58;;;;;;;30.60;100.00;153743.38;5113189;28;20184;-66
2022/08/21 05:35:42;;;;;;;19.75;18.10;;;;;;;31.38;100.00;153940.91;5095497;28;20614;-64
2022/08/21 05:38:09;;;;;;;17.80;16.35;;;;;;;32.05;100.00;154112.84;5113139;28;20179;-66
2022/08/21 05:40:36;;;;;;;23.17;20.67;;;;;;;33.34;100.00;154439.00;5113529;28;20179;-66
2022/08/21 05:43:03;;;;;;;21.33;19.80;;;;;;;34.18;100.00;154652.28;5112844;28;20191;-65
2022/08/21 05:45:33;;;;;;;21.42;19.45;;;;;;;34.56;100.00;154749.91;5113797;28;20226;-65
2022/08/21 05:48:07;;;;;;;18.85;17.45;;;;;;;35.42;100.00;154968.50;5113199;28;20198;-65
2022/08/21 05:50:33;;;;;;;16.27;14.95;;;;;;;35.87;100.00;155082.94;5113092;28;20187;-65
2022/08/21 05:53:02;;;;;;;13.60;12.90;;;;;;;35.86;100.00;155080.34;5113303;28;20660;-66
2022/08/21 05:55:29;;;;;;;13.38;12.90;;;;;;;34.69;100.00;154782.06;5112858;28;20179;-66
2022/08/21 05:57:56;;;;;;;15.50;14.45;;;;;;;34.82;100.00;154816.78;5113053;28;20183;-65
2022/08/21 06:00:23;;;;;;;15.32;14.15;;;;;;;34.97;100.00;154852.78;5113033;28;20187;-66
2022/08/21 06:02:50;;;;;;;16.98;15.65;;;;;;;35.11;100.00;154888.72;5112839;28;20188;-65
2022/08/21 06:05:18;;;;;;;16.23;14.82;;;;;;;35.60;100.00;155014.78;5113239;28;20256;-65
2022/08/21 06:07:44;;;;;;;14.85;13.73;;;;;;;36.48;100.00;155238.59;5113122;28;20709;-66
2022/08/21 06:10:13;;;;;;;13.10;12.40;;;;;;;37.17;100.00;155412.38;5112947;28;20184;-65
2022/08/21 06:12:40;;;;;;;11.73;10.73;;;;;;;37.47;100.00;155489.56;5112721;28;20681;-65
2022/08/21 06:15:08;;;;;;;10.35;9.90;;;;;;;37.57;100.00;155514.03;5112342;28;20324;-65
2022/08/21 06:17:34;;;;;;;15.85;14.55;;;;;;;37.45;100.00;155484.41;5112615;28;20638;-67
2022/08/21 06:20:01;;;;;;;18.17;16.95;;;;;;;36.41;100.00;155220.56;5112728;28;20653;-65
2022/08/21 06:22:29;;;;;;;16.20;15.30;;;;;;;36.20;100.00;155166.56;5112255;28;20179;-65
2022/08/21 06:24:56;;;;;;;15.07;13.73;;;;;;;35.12;100.00;154892.59;5112256;28;20630;-65
2022/08/21 06:27:24;;;;;;;12.65;12.15;;;;;;;34.98;100.00;154855.31;5112650;28;20677;-66
2022/08/21 06:29:51;;;;;;;12.90;12.02;;;;;;;35.51;100.00;154991.63;5112275;28;20184;-66
2022/08/21 06:32:18;;;;;;;12.23;11.38;;;;;;;36.41;100.00;155220.56;5112208;28;20288;-65
2022/08/21 06:34:44;;;;;;;12.20;11.52;;;;;;;35.82;100.00;155068.81;5112475;28;20215;-65
2022/08/21 06:37:11;;;;;;;13.30;12.43;;;;;;;35.95;100.00;155102.22;5112312;28;20233;-66
2022/08/21 06:39:39;;;;;;;12.38;11.57;;;;;;;35.52;100.00;154994.16;5094485;28;20187;-66
2022/08/21 06:42:06;;;;;;;18.52;10.30;;;;;;;34.92;100.00;154841.22;5112032;28;20204;-64
2022/08/21 06:44:34;;;;;;;12.90;12.25;;;;;;;34.12;100.00;154636.84;5112086;28;20188;-66
2022/08/21 06:47:01;;;;;;;11.75;11.35;;;;;;;33.70;100.00;154530.19;5112613;28;20199;-66
2022/08/21 06:49:28;;;;;;;12.30;11.23;;;;;;;33.06;100.00;154369.59;5112683;28;20633;-65
2022/08/21 06:51:55;;;;;;;11.45;10.32;;;;;;;32.84;100.00;154311.88;5112382;28;20194;-64
2022/08/21 06:54:22;;;;;;;11.50;10.75;;;;;;;32.71;100.00;154278.50;5112321;28;20192;-65
2022/08/21 06:56:49;;;;;;;10.38;9.65;;;;;;;32.13;100.00;154133.41;5094271;28;20179;-65
2022/08/21 06:59:16;;;;;;;10.10;9.65;;;;;;;32.08;100.00;154119.28;5112000;28;20260;-65
2022/08/21 07:01:44;;;;;;;9.80;9.38;;;;;;;32.13;100.00;154133.41;5112013;28;20194;-65
2022/08/21 07:04:11;;;;;;;9.73;8.90;;;;;;;31.88;100.00;154069.22;5112195;28;20650;-66
2022/08/21 07:06:38;;;;;;;7.95;7.65;;;;;;;31.40;100.00;153946.06;5112086;28;20230;-66
2022/08/21 07:09:05;;;;;;;8.95;8.45;;;;;;;31.21;100.00;153899.88;5111868;28;20194;-66
2022/08/21 07:11:32;;;;;;;9.30;8.50;;;;;;;31.21;100.00;153898.59;5112394;28;20184;-65
2022/08/21 07:13:59;;;;;;;9.20;8.80;;;;;;;31.40;100.00;153946.06;5111721;28;20231;-66
2022/08/21 07:16:26;;;;;;;9.48;8.93;;;;;;;31.60;100.00;153997.41;5112019;28;20206;-65
2022/08/21 07:18:54;;;;;;;8.85;8.45;;;;;;;31.56;100.00;153987.13;5112171;28;20187;-66
2022/08/21 07:21:21;;;;;;;8.30;8.00;;;;;;;31.80;100.00;154048.69;5112197;28;20684;-66
2022/08/21 07:23:50;;;;;;;9.50;8.63;;;;;;;31.86;100.00;154064.13;5112059;28;20534;-66
2022/08/21 07:26:23;;;;;;;9.23;8.63;;;;;;;31.98;100.00;154094.91;5111880;28;20294;-65
2022/08/21 07:28:50;;;;;;;9.32;9.02;;;;;;;32.26;100.00;154165.47;5112202;28;20194;-65
2022/08/21 07:31:18;;;;;;;10.02;9.32;;;;;;;32.35;100.00;154187.31;5111947;28;20184;-65
2022/08/21 07:33:46;;;;;;;8.85;8.48;;;;;;;32.43;100.00;154207.81;5112318;28;20266;-65
2022/08/21 07:36:15;;;;;;;9.00;8.60;;;;;;;32.71;100.00;154278.50;5112733;28;20711;-65
2022/08/21 07:38:41;;;;;;;9.35;8.85;;;;;;;32.76;100.00;154292.56;5115472;28;20187;-65
2022/08/21 07:41:16;;;;;;;9.98;9.50;;;;;;;32.78;100.00;154296.44;5115401;28;20183;-66
2022/08/21 07:43:43;;;;;;;10.50;10.00;;;;;;;32.84;100.00;154313.16;5115529;28;20206;-65
2022/08/21 07:46:10;;;;;;;11.73;10.90;;;;;;;32.71;100.00;154279.78;5115079;28;20203;-65
2022/08/21 07:48:37;;;;;;;11.90;9.68;;;;;;;32.40;100.00;154200.16;5115861;28;20187;-65
2022/08/21 07:51:07;;;;;;;10.63;9.82;;;;;;;32.17;100.00;154142.38;5115111;28;20197;-65
2022/08/21 07:53:37;;;;;;;10.80;10.15;;;;;;;32.46;100.00;154216.81;5115073;28;20199;-65
2022/08/21 07:56:05;;;;;;;10.75;10.15;;;;;;;32.32;100.00;154179.63;5115043;28;20186;-65
2022/08/21 07:58:32;;;;;;;9.95;9.13;;;;;;;32.77;100.00;154293.88;5115261;28;20176;-66
2022/08/21 08:00:59;;;;;;;9.57;9.07;;;;;;;32.16;100.00;154139.84;5115176;28;20188;-66
2022/08/21 08:03:26;;;;;;;9.27;8.57;;;;;;;32.08;100.00;154120.56;5115198;28;20184;-65
2022/08/21 08:05:53;;;;;;;8.65;8.20;;;;;;;32.37;100.00;154192.47;5114801;28;20209;-66
2022/08/21 08:08:20;;;;;;;9.32;7.00;;;;;;;32.42;100.00;154206.53;5096953;28;20592;-65
2022/08/21 08:10:49;;;;;;;7.82;7.18;;;;;;;32.35;100.00;154188.59;5115416;28;20191;-65
2022/08/21 08:13:16;;;;;;;6.97;6.55;;;;;;;32.16;100.00;154139.84;5114868;28;20345;-65
2022/08/21 08:15:43;;;;;;;6.45;6.15;;;;;;;32.12;100.00;154130.84;5114755;28;20695;-66
2022/08/21 08:18:10;;;;;;;6.53;6.00;;;;;;;31.27;100.00;153914.00;5114853;28;20179;-66
2022/08/21 08:20:37;;;;;;;6.70;6.40;;;;;;;31.37;100.00;153938.31;5114983;28;20223;-65
2022/08/21 08:23:04;;;;;;;6.13;5.78;;;;;;;31.05;100.00;153858.84;5114885;28;20194;-65
2022/08/21 08:25:31;;;;;;;6.45;5.93;;;;;;;30.88;100.00;153813.91;5114656;28;20706;-66
2022/08/21 08:28:01;;;;;;;6.90;6.40;;;;;;;31.47;100.00;153965.28;5114844;28;20206;-66
2022/08/21 08:30:27;;;;;;;6.70;6.28;;;;;;;31.61;100.00;153999.97;5114396;28;20274;-66
2022/08/21 08:32:55;;;;;;;6.70;5.80;;;;;;;31.51;100.00;153974.25;5114890;28;20210;-65
2022/08/21 08:35:22;;;;;;;5.70;5.40;;;;;;;31.67;100.00;154016.63;5114169;28;20282;-66
2022/08/21 08:37:49;;;;;;;9.95;6.30;;;;;;;31.73;100.00;154030.75;5114789;28;20197;-66
2022/08/21 08:40:24;;;;;;;7.15;5.95;;;;;;;31.54;100.00;153981.94;5114778;28;20607;-65
2022/08/21 08:42:51;;;;;;;6.00;5.43;;;;;;;31.77;100.00;154041.00;5114173;28;20186;-66
2022/08/21 08:45:23;;;;;;;6.20;5.90;;;;;;;31.23;100.00;153904.97;5114304;28;20195;-65
2022/08/21 08:47:57;;;;;;;7.53;5.80;;;;;;;31.31;100.00;153924.25;5114088;28;20224;-65
2022/08/21 08:50:34;;;;;;;7.15;6.50;;;;;;;31.45;100.00;153958.84;5114474;28;20560;-66
2022/08/21 08:53:05;;;;;;;6.93;6.40;;;;;;;31.47;100.00;153964.00;5113947;28;20194;-66
2022/08/21 08:55:35;;;;;;;6.97;6.38;;;;;;;31.15;100.00;153884.47;5114329;28;20195;-65
2022/08/21 08:58:03;;;;;;;7.20;6.60;;;;;;;31.51;100.00;153974.25;5113924;28;20183;-65
2022/08/21 09:00:32;;;;;;;6.80;6.43;;;;;;;31.50;100.00;153971.69;5113949;28;20241;-66
2022/08/21 09:03:03;;;;;;;8.45;7.18;;;;;;;31.61;100.00;154001.25;5114079;28;20187;-64
2022/08/21 09:05:37;;;;;;;6.97;6.47;;;;;;;31.42;100.00;153951.16;5113830;28;20713;-65
2022/08/21 09:08:26;;;;;;;8.00;7.35;;;;;;;31.20;100.00;153897.28;5113656;28;20266;-65
2022/08/21 09:11:02;;;;;;;8.65;7.22;;;;;;;31.65;100.00;154010.22;5113814;28;20197;-65
2022/08/21 09:13:42;;;;;;;8.30;5.70;;;;;;;31.43;100.00;153953.72;5113659;28;20178;-65
2022/08/21 09:16:19;;;;;;;7.40;6.68;;;;;;;31.21;100.00;153898.59;5113669;28;20270;-66
2022/08/21 09:18:56;;;;;;;11.10;7.10;;;;;;;30.84;100.00;153804.94;5113627;28;20273;-66
2022/08/21 09:21:33;;;;;;;12.35;7.47;;;;;;;30.33;100.00;153676.72;5113874;28;20195;-65
2022/08/21 09:24:10;;;;;;;8.02;7.47;;;;;;;30.60;100.00;153743.38;5113561;28;20561;-65
2022/08/21 09:26:45;;;;;;;6.90;6.40;;;;;;;30.81;100.00;153797.22;5113269;28;20207;-65
2022/08/21 09:29:13;;;;;;;7.57;6.80;;;;;;;31.10;100.00;153870.41;5113498;28;20201;-66
2022/08/21 09:31:41;;;;;;;7.57;6.78;;;;;;;30.79;100.00;153793.41;5113973;28;20198;-65
2022/08/21 09:34:11;;;;;;;8.55;6.70;;;;;;;31.04;100.00;153854.97;5113449;28;20183;-65
2022/08/21 09:36:41;;;;;;;7.95;7.43;;;;;;;31.11;100.00;153874.22;5113382;28;20183;-65
2022/08/21 09:39:09;;;;;;;8.20;6.95;;;;;;;31.11;100.00;153874.22;5113257;28;20554;-65
2022/08/21 09:41:37;;;;;;;7.35;6.85;;;;;;;31.16;100.00;153887.03;5113263;28;20187;-66
2022/08/21 09:44:06;;;;;;;8.23;6.93;;;;;;;31.17;100.00;153888.31;5113134;28;20184;-65
2022/08/21 09:46:33;;;;;;;7.55;7.03;;;;;;;31.02;100.00;153851.13;5094854;28;20218;-64
2022/08/21 09:49:04;;;;;;;7.75;7.30;;;;;;;31.25;100.00;153910.13;5113249;28;20618;-66
2022/08/21 09:51:35;;;;;;;7.45;6.93;;;;;;;31.21;100.00;153899.88;5113195;28;20557;-66
2022/08/21 09:54:18;;;;;;;8.32;7.53;;;;;;;30.91;100.00;153822.88;5113189;28;20311;-66
2022/08/21 09:59:40;;;;;;;8.13;7.40;;;;;;;31.14;100.00;153881.94;5112393;28;20174;-66
2022/08/21 10:02:25;;;;;;;9.27;6.97;;;;;;;31.32;100.00;153926.78;5113436;28;20671;-66
2022/08/21 10:04:56;;;;;;;7.65;7.15;;;;;;;31.21;100.00;153899.88;5112809;28;20237;-66
2022/08/21 10:07:24;;;;;;;8.00;6.55;;;;;;;30.93;100.00;153828.03;5112642;28;20211;-65
2022/08/21 10:10:01;;;;;;;7.68;6.85;;;;;;;30.94;100.00;153830.56;5113005;28;20190;-66
2022/08/21 10:12:36;;;;;;;7.25;6.97;;;;;;;30.75;100.00;153781.88;5112860;28;20274;-66
2022/08/21 10:15:10;;;;;;;8.38;7.63;;;;;;;30.70;100.00;153769.03;5112757;28;20317;-66
2022/08/21 10:17:53;;;;;;;8.13;7.47;;;;;;;30.42;100.00;153698.50;5112931;28;20201;-65
2022/08/21 10:20:26;;;;;;;7.90;7.32;;;;;;;30.50;100.00;153717.78;5113147;28;20207;-66
2022/08/21 10:23:05;;;;;;;7.50;6.90;;;;;;;30.31;100.00;153671.56;5112861;28;20191;-66
2022/08/21 10:25:37;;;;;;;8.63;7.80;;;;;;;30.13;100.00;153625.41;5113068;28;20229;-66
2022/08/21 10:28:14;;;;;;;8.50;7.93;;;;;;;29.90;100.00;153566.50;5112384;28;20199;-67
2022/08/21 10:30:51;;;;;;;8.88;8.10;;;;;;;30.09;100.00;153613.88;5112389;28;20236;-66
2022/08/21 10:33:34;;;;;;;12.15;7.75;;;;;;;30.14;100.00;153628.00;5112591;28;20179;-66
2022/08/21 10:36:14;;;;;;;8.25;7.40;;;;;;;30.01;100.00;153593.38;5112742;28;20681;-66
2022/08/21 10:38:59;;;;;;;9.00;8.43;;;;;;;29.99;100.00;153589.56;5112507;28;20187;-66
2022/08/21 10:41:43;;;;;;;10.05;8.68;;;;;;;29.74;100.00;153526.75;5112640;28;20183;-65
2022/08/21 10:44:23;;;;;;;10.13;8.65;;;;;;;29.36;100.00;153430.66;5112193;28;20209;-65
2022/08/21 10:46:55;;;;;;;9.25;8.48;;;;;;;29.49;100.00;153463.91;5112352;28;20693;-65
2022/08/21 10:49:32;;;;;;;9.75;8.85;;;;;;;29.55;100.00;153478.03;5112712;28;20240;-65
2022/08/21 10:52:25;;;;;;;10.05;9.48;;;;;;;29.59;100.00;153488.28;5095470;28;20183;-65
2022/08/21 10:55:00;;;;;;;9.68;9.05;;;;;;;29.59;100.00;153487.00;5112021;28;20194;-66
2022/08/21 10:57:36;;;;;;;10.90;9.93;;;;;;;29.83;100.00;153548.50;5112118;28;20182;-66
2022/08/21 11:00:09;;;;;;;10.38;9.93;;;;;;;29.74;100.00;153525.44;5112124;28;20179;-66
2022/08/21 11:02:42;;;;;;;10.70;10.20;;;;;;;29.71;100.00;153517.72;5094373;28;20190;-66
2022/08/21 11:05:16;;;;;;;11.35;10.43;;;;;;;29.76;100.00;153530.56;5112193;28;20179;-66
2022/08/21 11:07:52;;;;;;;10.75;10.20;;;;;;;29.62;100.00;153494.72;5112121;28;20297;-66
2022/08/21 11:10:25;;;;;;;12.18;10.02;;;;;;;29.46;100.00;153454.97;5112372;28;20187;-65
2022/08/21 11:12:56;;;;;;;12.00;11.30;;;;;;;29.38;100.00;153435.75;5116160;28;20197;-66
2022/08/21 11:15:45;;;;;;;12.32;11.30;;;;;;;29.34;100.00;153425.50;5115882;28;20314;-65
2022/08/21 11:18:22;;;;;;;12.35;11.25;;;;;;;29.19;100.00;153387.06;5116311;28;20188;-66
2022/08/21 11:21:05;;;;;;;11.10;10.50;;;;;;;29.20;100.00;153389.59;5116271;28;20666;-67